sensor_id;sensor_type;location;lat;lon;timestamp;P1;durP1;ratioP1;P2;durP2;ratioP2
8007;SDS011;4049;49.468;11.200;2023-05-07T00:00:23;4.40;;;3.00;;
8007;SDS011;4049;49.468;11.200;2023-05-07T00:02:50;6.30;;;2.53;;
8007;SDS011;4049;49.468;11.200;2023-05-07T00:05:17;4.23;;;2.60;;
8007;SDS011;4049;49.468;11.200;2023-05-07T00:07:45;3.43;;;2.93;;
8007;SDS011;4049;49.468;11.200;2023-05-07T00:10:12;3.83;;;2.60;;
8007;SDS011;4049;49.468;11.200;2023-05-07T00:12:41;3.80;;;2.63;;
8007;SDS011;4049;49.468;11.200;2023-05-07T00:15:08;5.30;;;3.40;;
8007;SDS011;4049;49.468;11.200;2023-05-07T00:17:35;3.80;;;3.10;;
8007;SDS011;4049;49.468;11.200;2023-05-07T00:20:02;3.90;;;3.27;;
8007;SDS011;4049;49.468;11.200;2023-05-07T00:22:30;4.20;;;3.20;;
8007;SDS011;4049;49.468;11.200;2023-05-07T00:24:57;5.17;;;3.07;;
8007;SDS011;4049;49.468;11.200;2023-05-07T00:27:24;3.73;;;3.00;;
8007;SDS011;4049;49.468;11.200;2023-05-07T00:29:52;3.33;;;3.03;;
8007;SDS011;4049;49.468;11.200;2023-05-07T00:32:19;5.03;;;3.07;;
8007;SDS011;4049;49.468;11.200;2023-05-07T00:34:46;3.53;;;2.70;;
8007;SDS011;4049;49.468;11.200;2023-05-07T00:37:13;4.13;;;2.70;;
8007;SDS011;4049;49.468;11.200;2023-05-07T00:39:40;3.90;;;2.90;;
8007;SDS011;4049;49.468;11.200;2023-05-07T00:42:06;5.10;;;2.90;;
8007;SDS011;4049;49.468;11.200;2023-05-07T00:44:34;3.77;;;2.80;;
8007;SDS011;4049;49.468;11.200;2023-05-07T00:47:03;7.17;;;3.20;;
8007;SDS011;4049;49.468;11.200;2023-05-07T00:49:32;4.27;;;3.00;;
8007;SDS011;4049;49.468;11.200;2023-05-07T00:52:04;2.90;;;2.50;;
8007;SDS011;4049;49.468;11.200;2023-05-07T00:54:32;3.83;;;3.07;;
8007;SDS011;4049;49.468;11.200;2023-05-07T00:57:01;3.27;;;2.70;;
8007;SDS011;4049;49.468;11.200;2023-05-07T00:59:28;3.53;;;2.83;;
8007;SDS011;4049;49.468;11.200;2023-05-07T01:01:56;4.03;;;2.70;;
8007;SDS011;4049;49.468;11.200;2023-05-07T01:04:24;4.07;;;2.93;;
8007;SDS011;4049;49.468;11.200;2023-05-07T01:06:52;3.80;;;2.77;;
8007;SDS011;4049;49.468;11.200;2023-05-07T01:09:20;4.80;;;2.90;;
8007;SDS011;4049;49.468;11.200;2023-05-07T01:11:48;2.83;;;2.63;;
8007;SDS011;4049;49.468;11.200;2023-05-07T01:14:16;3.03;;;2.77;;
8007;SDS011;4049;49.468;11.200;2023-05-07T01:16:44;3.17;;;2.87;;
8007;SDS011;4049;49.468;11.200;2023-05-07T01:19:11;3.93;;;2.93;;
8007;SDS011;4049;49.468;11.200;2023-05-07T01:21:42;7.10;;;3.10;;
8007;SDS011;4049;49.468;11.200;2023-05-07T01:24:13;4.07;;;3.13;;
8007;SDS011;4049;49.468;11.200;2023-05-07T01:26:41;3.87;;;2.70;;
8007;SDS011;4049;49.468;11.200;2023-05-07T01:29:08;4.30;;;2.87;;
8007;SDS011;4049;49.468;11.200;2023-05-07T01:31:35;3.93;;;3.33;;
8007;SDS011;4049;49.468;11.200;2023-05-07T01:34:05;5.17;;;2.97;;
8007;SDS011;4049;49.468;11.200;2023-05-07T01:36:34;3.80;;;3.03;;
8007;SDS011;4049;49.468;11.200;2023-05-07T01:39:03;3.43;;;2.70;;
8007;SDS011;4049;49.468;11.200;2023-05-07T01:41:32;3.00;;;2.63;;
8007;SDS011;4049;49.468;11.200;2023-05-07T01:44:00;4.50;;;2.90;;
8007;SDS011;4049;49.468;11.200;2023-05-07T01:46:29;3.17;;;2.77;;
8007;SDS011;4049;49.468;11.200;2023-05-07T01:48:57;4.70;;;2.90;;
8007;SDS011;4049;49.468;11.200;2023-05-07T01:51:24;5.50;;;3.20;;
8007;SDS011;4049;49.468;11.200;2023-05-07T01:53:51;3.50;;;2.90;;
8007;SDS011;4049;49.468;11.200;2023-05-07T01:56:19;6.13;;;3.33;;
8007;SDS011;4049;49.468;11.200;2023-05-07T01:58:47;4.53;;;3.33;;
8007;SDS011;4049;49.468;11.200;2023-05-07T02:01:16;4.57;;;3.50;;
8007;SDS011;4049;49.468;11.200;2023-05-07T02:03:43;5.73;;;3.17;;
8007;SDS011;4049;49.468;11.200;2023-05-07T02:06:09;3.80;;;3.17;;
8007;SDS011;4049;49.468;11.200;2023-05-07T02:08:36;4.27;;;3.63;;
8007;SDS011;4049;49.468;11.200;2023-05-07T02:11:03;5.80;;;3.23;;
8007;SDS011;4049;49.468;11.200;2023-05-07T02:13:31;3.30;;;3.00;;
8007;SDS011;4049;49.468;11.200;2023-05-07T02:16:00;4.47;;;3.43;;
8007;SDS011;4049;49.468;11.200;2023-05-07T02:18:27;3.93;;;3.53;;
8007;SDS011;4049;49.468;11.200;2023-05-07T02:20:54;5.03;;;3.67;;
8007;SDS011;4049;49.468;11.200;2023-05-07T02:23:21;4.70;;;3.60;;
8007;SDS011;4049;49.468;11.200;2023-05-07T02:25:48;4.53;;;3.43;;
8007;SDS011;4049;49.468;11.200;2023-05-07T02:28:15;5.20;;;4.03;;
8007;SDS011;4049;49.468;11.200;2023-05-07T02:30:41;4.37;;;3.97;;
8007;SDS011;4049;49.468;11.200;2023-05-07T02:33:09;5.57;;;4.00;;
8007;SDS011;4049;49.468;11.200;2023-05-07T02:35:37;4.30;;;3.80;;
8007;SDS011;4049;49.468;11.200;2023-05-07T02:38:04;4.87;;;3.97;;
8007;SDS011;4049;49.468;11.200;2023-05-07T02:40:31;5.47;;;4.37;;
8007;SDS011;4049;49.468;11.200;2023-05-07T02:45:34;6.07;;;4.10;;
8007;SDS011;4049;49.468;11.200;2023-05-07T02:48:02;5.73;;;3.90;;
8007;SDS011;4049;49.468;11.200;2023-05-07T02:50:31;6.80;;;4.17;;
8007;SDS011;4049;49.468;11.200;2023-05-07T02:52:58;6.70;;;4.77;;
8007;SDS011;4049;49.468;11.200;2023-05-07T02:55:25;4.87;;;4.10;;
8007;SDS011;4049;49.468;11.200;2023-05-07T02:57:52;6.57;;;4.60;;
8007;SDS011;4049;49.468;11.200;2023-05-07T03:00:19;5.10;;;4.13;;
8007;SDS011;4049;49.468;11.200;2023-05-07T03:02:47;5.63;;;4.27;;
8007;SDS011;4049;49.468;11.200;2023-05-07T03:05:13;6.47;;;4.80;;
8007;SDS011;4049;49.468;11.200;2023-05-07T03:07:42;8.50;;;4.90;;
8007;SDS011;4049;49.468;11.200;2023-05-07T03:10:10;5.23;;;4.40;;
8007;SDS011;4049;49.468;11.200;2023-05-07T03:12:37;8.10;;;4.60;;
8007;SDS011;4049;49.468;11.200;2023-05-07T03:15:04;5.80;;;4.67;;
8007;SDS011;4049;49.468;11.200;2023-05-07T03:17:32;6.70;;;4.90;;
8007;SDS011;4049;49.468;11.200;2023-05-07T03:19:58;9.30;;;5.50;;
8007;SDS011;4049;49.468;11.200;2023-05-07T03:22:25;5.57;;;4.67;;
8007;SDS011;4049;49.468;11.200;2023-05-07T03:24:53;5.47;;;4.23;;
8007;SDS011;4049;49.468;11.200;2023-05-07T03:27:20;6.33;;;4.93;;
8007;SDS011;4049;49.468;11.200;2023-05-07T03:29:47;6.53;;;4.87;;
8007;SDS011;4049;49.468;11.200;2023-05-07T03:32:14;6.70;;;4.60;;
8007;SDS011;4049;49.468;11.200;2023-05-07T03:34:41;7.90;;;5.73;;
8007;SDS011;4049;49.468;11.200;2023-05-07T03:37:08;7.73;;;5.00;;
8007;SDS011;4049;49.468;11.200;2023-05-07T03:39:34;6.87;;;5.10;;
8007;SDS011;4049;49.468;11.200;2023-05-07T03:42:03;6.77;;;5.50;;
8007;SDS011;4049;49.468;11.200;2023-05-07T03:44:29;7.33;;;5.30;;
8007;SDS011;4049;49.468;11.200;2023-05-07T03:46:56;7.17;;;5.40;;
8007;SDS011;4049;49.468;11.200;2023-05-07T03:49:23;6.87;;;5.43;;
8007;SDS011;4049;49.468;11.200;2023-05-07T03:51:50;6.20;;;5.27;;
8007;SDS011;4049;49.468;11.200;2023-05-07T03:54:16;6.40;;;5.03;;
8007;SDS011;4049;49.468;11.200;2023-05-07T03:56:43;8.37;;;5.37;;
8007;SDS011;4049;49.468;11.200;2023-05-07T03:59:11;7.00;;;5.40;;
8007;SDS011;4049;49.468;11.200;2023-05-07T04:01:39;8.10;;;6.23;;
8007;SDS011;4049;49.468;11.200;2023-05-07T04:04:06;7.23;;;5.00;;
8007;SDS011;4049;49.468;11.200;2023-05-07T04:06:32;8.30;;;5.13;;
8007;SDS011;4049;49.468;11.200;2023-05-07T04:08:59;6.30;;;5.27;;
8007;SDS011;4049;49.468;11.200;2023-05-07T04:11:26;7.97;;;5.60;;
8007;SDS011;4049;49.468;11.200;2023-05-07T04:13:53;9.17;;;5.73;;
8007;SDS011;4049;49.468;11.200;2023-05-07T04:16:21;9.13;;;5.17;;
8007;SDS011;4049;49.468;11.200;2023-05-07T04:18:48;7.67;;;5.27;;
8007;SDS011;4049;49.468;11.200;2023-05-07T04:21:15;6.20;;;5.17;;
8007;SDS011;4049;49.468;11.200;2023-05-07T04:23:42;7.23;;;5.60;;
8007;SDS011;4049;49.468;11.200;2023-05-07T04:26:09;6.77;;;4.87;;
8007;SDS011;4049;49.468;11.200;2023-05-07T04:28:36;5.80;;;4.87;;
8007;SDS011;4049;49.468;11.200;2023-05-07T04:31:03;6.53;;;4.23;;
8007;SDS011;4049;49.468;11.200;2023-05-07T04:33:31;8.33;;;5.13;;
8007;SDS011;4049;49.468;11.200;2023-05-07T04:35:58;5.77;;;4.70;;
8007;SDS011;4049;49.468;11.200;2023-05-07T04:38:27;5.70;;;4.53;;
8007;SDS011;4049;49.468;11.200;2023-05-07T04:40:55;5.93;;;4.40;;
8007;SDS011;4049;49.468;11.200;2023-05-07T04:43:22;7.20;;;4.60;;
8007;SDS011;4049;49.468;11.200;2023-05-07T04:45:49;6.53;;;4.80;;
8007;SDS011;4049;49.468;11.200;2023-05-07T04:48:17;8.17;;;5.00;;
8007;SDS011;4049;49.468;11.200;2023-05-07T04:50:48;7.50;;;5.33;;
8007;SDS011;4049;49.468;11.200;2023-05-07T04:53:15;8.37;;;6.10;;
8007;SDS011;4049;49.468;11.200;2023-05-07T04:55:42;7.90;;;5.83;;
8007;SDS011;4049;49.468;11.200;2023-05-07T04:58:10;8.40;;;6.40;;
8007;SDS011;4049;49.468;11.200;2023-05-07T05:00:37;10.00;;;7.07;;
8007;SDS011;4049;49.468;11.200;2023-05-07T05:03:04;9.33;;;7.00;;
8007;SDS011;4049;49.468;11.200;2023-05-07T05:05:32;9.10;;;6.53;;
8007;SDS011;4049;49.468;11.200;2023-05-07T05:08:00;9.00;;;6.90;;
8007;SDS011;4049;49.468;11.200;2023-05-07T05:10:27;8.97;;;6.70;;
8007;SDS011;4049;49.468;11.200;2023-05-07T05:12:54;10.27;;;7.27;;
8007;SDS011;4049;49.468;11.200;2023-05-07T05:15:21;9.23;;;6.73;;
8007;SDS011;4049;49.468;11.200;2023-05-07T05:17:48;9.43;;;6.93;;
8007;SDS011;4049;49.468;11.200;2023-05-07T05:20:15;10.73;;;7.07;;
8007;SDS011;4049;49.468;11.200;2023-05-07T05:22:42;9.93;;;6.87;;
8007;SDS011;4049;49.468;11.200;2023-05-07T05:25:11;9.47;;;7.30;;
8007;SDS011;4049;49.468;11.200;2023-05-07T05:27:37;10.40;;;7.27;;
8007;SDS011;4049;49.468;11.200;2023-05-07T05:30:05;10.17;;;7.20;;
8007;SDS011;4049;49.468;11.200;2023-05-07T05:32:32;9.07;;;6.47;;
8007;SDS011;4049;49.468;11.200;2023-05-07T05:34:59;9.17;;;6.43;;
8007;SDS011;4049;49.468;11.200;2023-05-07T05:37:26;9.73;;;7.10;;
8007;SDS011;4049;49.468;11.200;2023-05-07T05:39:55;10.53;;;7.07;;
8007;SDS011;4049;49.468;11.200;2023-05-07T05:42:23;8.40;;;6.30;;
8007;SDS011;4049;49.468;11.200;2023-05-07T05:44:50;10.93;;;7.33;;
8007;SDS011;4049;49.468;11.200;2023-05-07T05:47:17;8.50;;;6.93;;
8007;SDS011;4049;49.468;11.200;2023-05-07T05:49:43;11.07;;;7.07;;
8007;SDS011;4049;49.468;11.200;2023-05-07T05:52:11;10.60;;;6.90;;
8007;SDS011;4049;49.468;11.200;2023-05-07T05:54:41;8.80;;;6.77;;
8007;SDS011;4049;49.468;11.200;2023-05-07T05:57:08;8.77;;;7.03;;
8007;SDS011;4049;49.468;11.200;2023-05-07T05:59:36;8.97;;;6.53;;
8007;SDS011;4049;49.468;11.200;2023-05-07T06:02:03;8.17;;;6.50;;
8007;SDS011;4049;49.468;11.200;2023-05-07T06:04:30;9.27;;;6.40;;
8007;SDS011;4049;49.468;11.200;2023-05-07T06:06:57;8.83;;;6.20;;
8007;SDS011;4049;49.468;11.200;2023-05-07T06:09:24;9.17;;;6.80;;
8007;SDS011;4049;49.468;11.200;2023-05-07T06:11:50;7.60;;;6.17;;
8007;SDS011;4049;49.468;11.200;2023-05-07T06:14:17;14.33;;;8.10;;
8007;SDS011;4049;49.468;11.200;2023-05-07T06:16:45;13.73;;;8.43;;
8007;SDS011;4049;49.468;11.200;2023-05-07T06:19:12;10.23;;;7.63;;
8007;SDS011;4049;49.468;11.200;2023-05-07T06:21:39;9.83;;;6.53;;
8007;SDS011;4049;49.468;11.200;2023-05-07T06:24:06;10.03;;;7.47;;
8007;SDS011;4049;49.468;11.200;2023-05-07T06:26:33;8.20;;;6.13;;
8007;SDS011;4049;49.468;11.200;2023-05-07T06:29:00;9.97;;;6.60;;
8007;SDS011;4049;49.468;11.200;2023-05-07T06:31:29;7.90;;;6.63;;
8007;SDS011;4049;49.468;11.200;2023-05-07T06:33:58;7.83;;;6.30;;
8007;SDS011;4049;49.468;11.200;2023-05-07T06:36:27;8.60;;;6.40;;
8007;SDS011;4049;49.468;11.200;2023-05-07T06:38:54;12.37;;;7.20;;
8007;SDS011;4049;49.468;11.200;2023-05-07T06:41:20;8.80;;;6.57;;
8007;SDS011;4049;49.468;11.200;2023-05-07T06:43:47;8.80;;;6.40;;
8007;SDS011;4049;49.468;11.200;2023-05-07T06:46:14;9.47;;;6.33;;
8007;SDS011;4049;49.468;11.200;2023-05-07T06:48:41;8.90;;;6.50;;
8007;SDS011;4049;49.468;11.200;2023-05-07T06:51:09;8.33;;;6.80;;
8007;SDS011;4049;49.468;11.200;2023-05-07T06:53:36;8.40;;;6.47;;
8007;SDS011;4049;49.468;11.200;2023-05-07T06:56:03;7.17;;;6.10;;
8007;SDS011;4049;49.468;11.200;2023-05-07T06:58:31;9.00;;;6.27;;
8007;SDS011;4049;49.468;11.200;2023-05-07T07:00:57;8.43;;;6.70;;
8007;SDS011;4049;49.468;11.200;2023-05-07T07:03:24;8.73;;;7.03;;
8007;SDS011;4049;49.468;11.200;2023-05-07T07:05:51;8.23;;;6.67;;
8007;SDS011;4049;49.468;11.200;2023-05-07T07:08:20;7.47;;;6.27;;
8007;SDS011;4049;49.468;11.200;2023-05-07T07:10:47;8.93;;;6.77;;
8007;SDS011;4049;49.468;11.200;2023-05-07T07:13:14;9.03;;;7.20;;
8007;SDS011;4049;49.468;11.200;2023-05-07T07:15:41;8.43;;;6.33;;
8007;SDS011;4049;49.468;11.200;2023-05-07T07:18:09;8.90;;;6.57;;
8007;SDS011;4049;49.468;11.200;2023-05-07T07:20:35;7.43;;;5.93;;
8007;SDS011;4049;49.468;11.200;2023-05-07T07:23:02;8.93;;;6.23;;
8007;SDS011;4049;49.468;11.200;2023-05-07T07:25:31;10.00;;;6.43;;
8007;SDS011;4049;49.468;11.200;2023-05-07T07:27:57;8.10;;;6.43;;
8007;SDS011;4049;49.468;11.200;2023-05-07T07:30:24;7.50;;;6.00;;
8007;SDS011;4049;49.468;11.200;2023-05-07T07:32:52;9.10;;;6.60;;
8007;SDS011;4049;49.468;11.200;2023-05-07T07:35:19;6.73;;;5.90;;
8007;SDS011;4049;49.468;11.200;2023-05-07T07:37:46;7.27;;;5.67;;
8007;SDS011;4049;49.468;11.200;2023-05-07T07:40:14;7.17;;;5.80;;
8007;SDS011;4049;49.468;11.200;2023-05-07T07:42:43;7.47;;;6.27;;
8007;SDS011;4049;49.468;11.200;2023-05-07T07:45:10;7.07;;;5.90;;
8007;SDS011;4049;49.468;11.200;2023-05-07T07:47:37;8.83;;;6.07;;
8007;SDS011;4049;49.468;11.200;2023-05-07T07:50:04;6.70;;;5.33;;
8007;SDS011;4049;49.468;11.200;2023-05-07T07:52:32;24.43;;;12.87;;
8007;SDS011;4049;49.468;11.200;2023-05-07T07:54:59;16.97;;;8.57;;
8007;SDS011;4049;49.468;11.200;2023-05-07T07:57:26;8.60;;;6.50;;
8007;SDS011;4049;49.468;11.200;2023-05-07T07:59:54;10.73;;;6.47;;
8007;SDS011;4049;49.468;11.200;2023-05-07T08:02:21;6.63;;;5.60;;
8007;SDS011;4049;49.468;11.200;2023-05-07T08:04:47;8.20;;;5.70;;
8007;SDS011;4049;49.468;11.200;2023-05-07T08:07:14;7.43;;;5.80;;
8007;SDS011;4049;49.468;11.200;2023-05-07T08:09:43;6.77;;;6.07;;
8007;SDS011;4049;49.468;11.200;2023-05-07T08:12:10;7.27;;;6.00;;
8007;SDS011;4049;49.468;11.200;2023-05-07T08:14:37;6.60;;;5.53;;
8007;SDS011;4049;49.468;11.200;2023-05-07T08:17:05;6.30;;;5.50;;
8007;SDS011;4049;49.468;11.200;2023-05-07T08:19:32;6.60;;;5.90;;
8007;SDS011;4049;49.468;11.200;2023-05-07T08:22:00;6.53;;;5.50;;
8007;SDS011;4049;49.468;11.200;2023-05-07T08:24:28;9.33;;;6.00;;
8007;SDS011;4049;49.468;11.200;2023-05-07T08:26:55;7.00;;;5.60;;
8007;SDS011;4049;49.468;11.200;2023-05-07T08:29:22;7.20;;;5.77;;
8007;SDS011;4049;49.468;11.200;2023-05-07T08:31:49;9.20;;;5.73;;
8007;SDS011;4049;49.468;11.200;2023-05-07T08:34:17;9.00;;;5.60;;
8007;SDS011;4049;49.468;11.200;2023-05-07T08:36:44;6.93;;;4.97;;
8007;SDS011;4049;49.468;11.200;2023-05-07T08:39:12;8.10;;;5.87;;
8007;SDS011;4049;49.468;11.200;2023-05-07T08:41:38;11.47;;;8.20;;
8007;SDS011;4049;49.468;11.200;2023-05-07T08:44:07;8.27;;;6.47;;
8007;SDS011;4049;49.468;11.200;2023-05-07T08:46:38;6.83;;;5.73;;
8007;SDS011;4049;49.468;11.200;2023-05-07T08:49:07;7.77;;;6.13;;
8007;SDS011;4049;49.468;11.200;2023-05-07T08:51:35;8.63;;;6.33;;
8007;SDS011;4049;49.468;11.200;2023-05-07T08:54:02;6.47;;;5.53;;
8007;SDS011;4049;49.468;11.200;2023-05-07T08:56:29;6.63;;;5.40;;
8007;SDS011;4049;49.468;11.200;2023-05-07T08:58:56;8.40;;;6.40;;
8007;SDS011;4049;49.468;11.200;2023-05-07T09:01:23;8.37;;;5.73;;
8007;SDS011;4049;49.468;11.200;2023-05-07T09:03:51;7.63;;;5.60;;
8007;SDS011;4049;49.468;11.200;2023-05-07T09:06:19;10.00;;;6.20;;
8007;SDS011;4049;49.468;11.200;2023-05-07T09:08:50;9.27;;;5.97;;
8007;SDS011;4049;49.468;11.200;2023-05-07T09:11:19;7.77;;;5.07;;
8007;SDS011;4049;49.468;11.200;2023-05-07T09:13:47;6.30;;;5.40;;
8007;SDS011;4049;49.468;11.200;2023-05-07T09:16:15;7.97;;;5.33;;
8007;SDS011;4049;49.468;11.200;2023-05-07T09:18:42;7.23;;;5.67;;
8007;SDS011;4049;49.468;11.200;2023-05-07T09:21:10;10.50;;;6.00;;
8007;SDS011;4049;49.468;11.200;2023-05-07T09:23:37;6.47;;;5.73;;
8007;SDS011;4049;49.468;11.200;2023-05-07T09:26:06;7.60;;;5.20;;
8007;SDS011;4049;49.468;11.200;2023-05-07T09:28:37;6.80;;;5.27;;
8007;SDS011;4049;49.468;11.200;2023-05-07T09:31:05;8.27;;;5.87;;
8007;SDS011;4049;49.468;11.200;2023-05-07T09:33:32;9.07;;;5.43;;
8007;SDS011;4049;49.468;11.200;2023-05-07T09:36:01;6.90;;;5.70;;
8007;SDS011;4049;49.468;11.200;2023-05-07T09:38:30;8.33;;;5.00;;
8007;SDS011;4049;49.468;11.200;2023-05-07T09:41:01;7.13;;;5.20;;
8007;SDS011;4049;49.468;11.200;2023-05-07T09:43:32;9.43;;;5.73;;
8007;SDS011;4049;49.468;11.200;2023-05-07T09:46:01;9.23;;;5.30;;
8007;SDS011;4049;49.468;11.200;2023-05-07T09:48:29;7.63;;;5.43;;
8007;SDS011;4049;49.468;11.200;2023-05-07T09:50:57;5.30;;;4.23;;
8007;SDS011;4049;49.468;11.200;2023-05-07T09:53:28;7.53;;;5.53;;
8007;SDS011;4049;49.468;11.200;2023-05-07T09:55:57;6.80;;;4.77;;
8007;SDS011;4049;49.468;11.200;2023-05-07T09:58:25;6.83;;;5.07;;
8007;SDS011;4049;49.468;11.200;2023-05-07T10:00:54;5.47;;;4.67;;
8007;SDS011;4049;49.468;11.200;2023-05-07T10:03:21;5.07;;;4.27;;
8007;SDS011;4049;49.468;11.200;2023-05-07T10:05:50;5.97;;;5.00;;
8007;SDS011;4049;49.468;11.200;2023-05-07T10:08:17;5.37;;;4.87;;
8007;SDS011;4049;49.468;11.200;2023-05-07T10:10:46;7.00;;;4.73;;
8007;SDS011;4049;49.468;11.200;2023-05-07T10:13:13;4.60;;;4.20;;
8007;SDS011;4049;49.468;11.200;2023-05-07T10:15:40;6.63;;;4.50;;
8007;SDS011;4049;49.468;11.200;2023-05-07T10:18:09;5.00;;;4.50;;
8007;SDS011;4049;49.468;11.200;2023-05-07T10:20:38;5.43;;;4.70;;
8007;SDS011;4049;49.468;11.200;2023-05-07T10:23:06;5.70;;;4.50;;
8007;SDS011;4049;49.468;11.200;2023-05-07T10:25:36;5.00;;;4.10;;
8007;SDS011;4049;49.468;11.200;2023-05-07T10:28:04;6.43;;;4.60;;
8007;SDS011;4049;49.468;11.200;2023-05-07T10:30:35;6.27;;;4.27;;
8007;SDS011;4049;49.468;11.200;2023-05-07T10:33:11;5.47;;;4.07;;
8007;SDS011;4049;49.468;11.200;2023-05-07T10:35:42;5.30;;;4.33;;
8007;SDS011;4049;49.468;11.200;2023-05-07T10:38:11;4.70;;;4.10;;
8007;SDS011;4049;49.468;11.200;2023-05-07T10:40:38;6.00;;;4.30;;
8007;SDS011;4049;49.468;11.200;2023-05-07T10:43:05;4.40;;;4.00;;
8007;SDS011;4049;49.468;11.200;2023-05-07T10:45:33;4.47;;;4.03;;
8007;SDS011;4049;49.468;11.200;2023-05-07T10:48:06;5.97;;;4.70;;
8007;SDS011;4049;49.468;11.200;2023-05-07T10:50:36;4.70;;;4.27;;
8007;SDS011;4049;49.468;11.200;2023-05-07T10:53:22;4.73;;;4.03;;
8007;SDS011;4049;49.468;11.200;2023-05-07T10:55:51;5.33;;;4.40;;
8007;SDS011;4049;49.468;11.200;2023-05-07T10:58:52;5.00;;;4.20;;
8007;SDS011;4049;49.468;11.200;2023-05-07T11:04:16;4.73;;;4.10;;
8007;SDS011;4049;49.468;11.200;2023-05-07T11:09:55;5.17;;;4.00;;
8007;SDS011;4049;49.468;11.200;2023-05-07T11:15:39;3.95;;;3.55;;
8007;SDS011;4049;49.468;11.200;2023-05-07T11:18:08;3.67;;;3.38;;
8007;SDS011;4049;49.468;11.200;2023-05-07T11:20:49;5.75;;;3.30;;
8007;SDS011;4049;49.468;11.200;2023-05-07T11:26:18;4.85;;;3.47;;
8007;SDS011;4049;49.468;11.200;2023-05-07T11:28:45;3.33;;;3.03;;
8007;SDS011;4049;49.468;11.200;2023-05-07T11:31:12;4.07;;;3.60;;
8007;SDS011;4049;49.468;11.200;2023-05-07T11:33:41;4.00;;;3.58;;
8007;SDS011;4049;49.468;11.200;2023-05-07T11:36:10;5.28;;;3.58;;
8007;SDS011;4049;49.468;11.200;2023-05-07T11:38:37;3.75;;;3.35;;
8007;SDS011;4049;49.468;11.200;2023-05-07T11:41:04;4.07;;;3.17;;
8007;SDS011;4049;49.468;11.200;2023-05-07T11:43:33;4.35;;;3.45;;
8007;SDS011;4049;49.468;11.200;2023-05-07T11:46:07;4.10;;;3.65;;
8007;SDS011;4049;49.468;11.200;2023-05-07T11:48:35;4.95;;;4.35;;
8007;SDS011;4049;49.468;11.200;2023-05-07T11:51:03;3.45;;;3.15;;
8007;SDS011;4049;49.468;11.200;2023-05-07T11:53:35;4.97;;;3.22;;
8007;SDS011;4049;49.468;11.200;2023-05-07T11:56:05;4.63;;;3.00;;
8007;SDS011;4049;49.468;11.200;2023-05-07T11:58:34;4.22;;;3.22;;
8007;SDS011;4049;49.468;11.200;2023-05-07T12:01:01;3.55;;;3.25;;
8007;SDS011;4049;49.468;11.200;2023-05-07T12:03:28;3.80;;;3.47;;
8007;SDS011;4049;49.468;11.200;2023-05-07T12:05:55;4.35;;;3.50;;
8007;SDS011;4049;49.468;11.200;2023-05-07T12:08:22;3.72;;;3.22;;
8007;SDS011;4049;49.468;11.200;2023-05-07T12:10:49;4.13;;;3.50;;
8007;SDS011;4049;49.468;11.200;2023-05-07T12:13:16;4.18;;;3.50;;
8007;SDS011;4049;49.468;11.200;2023-05-07T12:15:45;4.05;;;3.58;;
8007;SDS011;4049;49.468;11.200;2023-05-07T12:18:12;4.68;;;3.38;;
8007;SDS011;4049;49.468;11.200;2023-05-07T12:20:39;4.55;;;3.78;;
8007;SDS011;4049;49.468;11.200;2023-05-07T12:23:06;4.20;;;3.35;;
8007;SDS011;4049;49.468;11.200;2023-05-07T12:25:34;3.58;;;3.28;;
8007;SDS011;4049;49.468;11.200;2023-05-07T12:28:01;2.95;;;2.65;;
8007;SDS011;4049;49.468;11.200;2023-05-07T12:30:29;4.25;;;3.28;;
8007;SDS011;4049;49.468;11.200;2023-05-07T12:32:58;4.13;;;3.07;;
8007;SDS011;4049;49.468;11.200;2023-05-07T12:35:28;3.33;;;3.03;;
8007;SDS011;4049;49.468;11.200;2023-05-07T12:37:55;3.83;;;3.28;;
8007;SDS011;4049;49.468;11.200;2023-05-07T12:40:24;4.03;;;3.08;;
8007;SDS011;4049;49.468;11.200;2023-05-07T12:42:52;4.40;;;3.40;;
8007;SDS011;4049;49.468;11.200;2023-05-07T12:45:20;5.10;;;3.80;;
8007;SDS011;4049;49.468;11.200;2023-05-07T12:47:47;3.80;;;3.22;;
8007;SDS011;4049;49.468;11.200;2023-05-07T12:50:16;4.15;;;3.50;;
8007;SDS011;4049;49.468;11.200;2023-05-07T12:52:43;3.63;;;3.08;;
8007;SDS011;4049;49.468;11.200;2023-05-07T12:55:12;3.90;;;3.42;;
8007;SDS011;4049;49.468;11.200;2023-05-07T12:57:40;4.50;;;3.40;;
8007;SDS011;4049;49.468;11.200;2023-05-07T13:00:09;4.40;;;3.53;;
8007;SDS011;4049;49.468;11.200;2023-05-07T13:02:37;5.40;;;3.50;;
8007;SDS011;4049;49.468;11.200;2023-05-07T13:05:04;3.92;;;3.28;;
8007;SDS011;4049;49.468;11.200;2023-05-07T13:07:33;3.50;;;3.10;;
8007;SDS011;4049;49.468;11.200;2023-05-07T13:10:01;3.58;;;3.22;;
8007;SDS011;4049;49.468;11.200;2023-05-07T13:12:29;3.25;;;2.83;;
8007;SDS011;4049;49.468;11.200;2023-05-07T13:14:56;4.32;;;3.20;;
8007;SDS011;4049;49.468;11.200;2023-05-07T13:17:22;3.88;;;3.45;;
8007;SDS011;4049;49.468;11.200;2023-05-07T13:19:49;3.50;;;3.20;;
8007;SDS011;4049;49.468;11.200;2023-05-07T13:22:16;4.55;;;3.17;;
8007;SDS011;4049;49.468;11.200;2023-05-07T13:24:47;3.60;;;3.30;;
8007;SDS011;4049;49.468;11.200;2023-05-07T13:27:13;4.35;;;3.72;;
8007;SDS011;4049;49.468;11.200;2023-05-07T13:29:40;4.18;;;3.65;;
8007;SDS011;4049;49.468;11.200;2023-05-07T13:32:07;3.95;;;3.03;;
8007;SDS011;4049;49.468;11.200;2023-05-07T13:34:34;3.85;;;3.45;;
8007;SDS011;4049;49.468;11.200;2023-05-07T13:37:01;4.97;;;3.83;;
8007;SDS011;4049;49.468;11.200;2023-05-07T13:39:28;3.75;;;3.25;;
8007;SDS011;4049;49.468;11.200;2023-05-07T13:41:57;3.70;;;3.25;;
8007;SDS011;4049;49.468;11.200;2023-05-07T13:44:23;3.50;;;2.97;;
8007;SDS011;4049;49.468;11.200;2023-05-07T13:46:50;5.07;;;3.72;;
8007;SDS011;4049;49.468;11.200;2023-05-07T13:49:17;4.15;;;3.28;;
8007;SDS011;4049;49.468;11.200;2023-05-07T13:51:44;3.70;;;3.25;;
8007;SDS011;4049;49.468;11.200;2023-05-07T13:54:11;3.55;;;3.20;;
8007;SDS011;4049;49.468;11.200;2023-05-07T13:56:37;4.68;;;3.40;;
8007;SDS011;4049;49.468;11.200;2023-05-07T13:59:06;2.97;;;2.78;;
8007;SDS011;4049;49.468;11.200;2023-05-07T14:01:33;3.97;;;3.10;;
8007;SDS011;4049;49.468;11.200;2023-05-07T14:04:00;3.80;;;3.35;;
8007;SDS011;4049;49.468;11.200;2023-05-07T14:06:27;4.43;;;3.72;;
8007;SDS011;4049;49.468;11.200;2023-05-07T14:08:53;4.65;;;3.42;;
8007;SDS011;4049;49.468;11.200;2023-05-07T14:11:23;3.67;;;3.35;;
8007;SDS011;4049;49.468;11.200;2023-05-07T14:13:49;4.25;;;3.53;;
8007;SDS011;4049;49.468;11.200;2023-05-07T14:16:18;3.92;;;3.50;;
8007;SDS011;4049;49.468;11.200;2023-05-07T14:18:44;4.55;;;3.42;;
8007;SDS011;4049;49.468;11.200;2023-05-07T14:21:11;3.78;;;3.38;;
8007;SDS011;4049;49.468;11.200;2023-05-07T14:23:39;5.35;;;3.88;;
8007;SDS011;4049;49.468;11.200;2023-05-07T14:26:05;5.00;;;3.50;;
8007;SDS011;4049;49.468;11.200;2023-05-07T14:28:32;4.63;;;3.40;;
8007;SDS011;4049;49.468;11.200;2023-05-07T14:30:59;4.95;;;3.80;;
8007;SDS011;4049;49.468;11.200;2023-05-07T14:33:27;5.35;;;3.97;;
8007;SDS011;4049;49.468;11.200;2023-05-07T14:35:54;3.65;;;3.20;;
8007;SDS011;4049;49.468;11.200;2023-05-07T14:38:21;4.55;;;3.88;;
8007;SDS011;4049;49.468;11.200;2023-05-07T14:40:48;4.82;;;3.35;;
8007;SDS011;4049;49.468;11.200;2023-05-07T14:43:14;4.53;;;3.97;;
8007;SDS011;4049;49.468;11.200;2023-05-07T14:45:41;5.05;;;3.72;;
8007;SDS011;4049;49.468;11.200;2023-05-07T14:48:08;4.78;;;3.75;;
8007;SDS011;4049;49.468;11.200;2023-05-07T14:50:41;6.60;;;4.50;;
8007;SDS011;4049;49.468;11.200;2023-05-07T14:53:08;6.05;;;3.78;;
8007;SDS011;4049;49.468;11.200;2023-05-07T14:55:35;4.47;;;3.72;;
8007;SDS011;4049;49.468;11.200;2023-05-07T14:58:02;6.30;;;3.95;;
8007;SDS011;4049;49.468;11.200;2023-05-07T15:00:28;4.68;;;3.72;;
8007;SDS011;4049;49.468;11.200;2023-05-07T15:02:55;4.28;;;3.88;;
8007;SDS011;4049;49.468;11.200;2023-05-07T15:05:31;4.20;;;3.45;;
8007;SDS011;4049;49.468;11.200;2023-05-07T15:07:59;4.63;;;3.60;;
8007;SDS011;4049;49.468;11.200;2023-05-07T15:10:26;4.15;;;3.75;;
8007;SDS011;4049;49.468;11.200;2023-05-07T15:12:53;5.32;;;3.72;;
8007;SDS011;4049;49.468;11.200;2023-05-07T15:15:20;5.20;;;3.78;;
8007;SDS011;4049;49.468;11.200;2023-05-07T15:17:47;3.80;;;3.40;;